If you wish to contribute or participate in the discussions about articles you are invited to join SKYbrary as a registered user

 Actions

Odate-Noshiro Airport

From SKYbrary Wiki

RJSR
Airport
ICAO: RJSR – IATA: ONJ
Summary
Name Odate-Noshiro Airport
Region Asia and Pacific
Territory Japan JP.gif
Location Kitaakita, Akita Prefecture
Serving Akita
Elevation 84.125 m <br />276 ft84.125 m <br />
Coordinates 40° 11' 41.90" N, 140° 22' 22.00" E
Runways
Designator Length Width Surface ROPS
11/29 2000 m6,561.68 ft <br /> 45 m147.638 ft <br /> ASP yes/yes


METAR
Observation RJSR 230900Z VRB01KT 9999 FEW003 SCT030 BKN/// 20/20 Q1010
Station Odate-Noshiro Airport
Date/Time 23 June 2021 09:00:00
Wind direction °
Wind speed 01 kts
Lowest cloud amount few clouds
Temperature 20°C
Dew point 20°C
Humidity 100%
QNH 1010 hPa
Weather condition n/a

Odate–Noshiro Airport is an airport in Kitaakita, Akita, Japan and is 8.3 nm15,371.6 m <br />15.372 km <br />50,431.759 ft <br />. It is also informally known as Akita North Airport.

Climatology

Humid Sub-tropical climate (Köppen climate classification Cfa)

Maps

Terrain

Loading map...

Airport Layout

Loading map...


Accidents & Serious Incidents at or in vicinity of RJSR

None on SKYbrary